createdAt,value
2019-02-20T00:01:26.325Z,5.84
2019-02-20T00:03:55.509Z,5.88
2019-02-20T00:06:24.628Z,5.85
2019-02-20T00:08:53.740Z,5.83
2019-02-20T00:11:23.939Z,5.79
2019-02-20T00:13:53.058Z,5.83
2019-02-20T00:16:22.439Z,5.84
2019-02-20T00:18:51.555Z,5.83
2019-02-20T00:21:20.936Z,5.84
2019-02-20T00:23:50.052Z,5.90
2019-02-20T00:26:19.170Z,5.95
2019-02-20T00:28:48.304Z,5.95
2019-02-20T00:31:17.413Z,5.87
2019-02-20T00:33:46.538Z,5.89
2019-02-20T00:36:15.645Z,5.86
2019-02-20T00:38:44.763Z,5.99
2019-02-20T00:41:13.878Z,5.98
2019-02-20T00:43:44.630Z,5.85
2019-02-20T00:46:18.247Z,5.78
2019-02-20T00:48:49.009Z,5.81
2019-02-20T00:51:19.761Z,5.86
2019-02-20T00:53:50.530Z,5.76
2019-02-20T00:56:19.632Z,5.75
2019-02-20T00:58:48.754Z,5.81
2019-02-20T01:01:17.865Z,5.83
2019-02-20T01:03:46.984Z,5.89
2019-02-20T01:06:17.477Z,5.89
2019-02-20T01:08:46.589Z,5.88
2019-02-20T01:11:15.699Z,5.85
2019-02-20T01:13:44.814Z,5.84
2019-02-20T01:16:13.931Z,5.85
2019-02-20T01:18:43.365Z,5.81
2019-02-20T01:21:12.475Z,5.86
2019-02-20T01:23:41.592Z,5.85
2019-02-20T01:26:10.704Z,5.84
2019-02-20T01:28:39.821Z,5.79
2019-02-20T01:31:08.931Z,5.71
2019-02-20T01:33:38.050Z,5.76
2019-02-20T01:36:07.159Z,5.86
2019-02-20T01:38:36.284Z,5.84
2019-02-20T01:41:05.397Z,5.84
2019-02-20T01:43:35.492Z,6.01
2019-02-20T01:46:04.603Z,6.08
2019-02-20T01:48:33.717Z,6.05
2019-02-20T01:51:02.833Z,6.08
2019-02-20T01:53:31.943Z,6.08
2019-02-20T01:56:01.060Z,6.08
2019-02-20T01:58:30.171Z,6.05
2019-02-20T02:00:59.297Z,5.98
2019-02-20T02:03:28.404Z,5.92
2019-02-20T02:05:57.794Z,5.90
2019-02-20T02:08:26.904Z,5.93
2019-02-20T02:10:56.025Z,6.02
2019-02-20T02:13:25.136Z,6.02
2019-02-20T02:15:54.268Z,6.05
2019-02-20T02:18:23.384Z,6.07
2019-02-20T02:20:52.494Z,6.04
2019-02-20T02:23:21.626Z,6.06
2019-02-20T02:25:51.030Z,6.03
2019-02-20T02:28:20.138Z,5.98
2019-02-20T02:30:49.259Z,5.86
2019-02-20T02:33:18.371Z,5.89
2019-02-20T02:35:47.484Z,5.85
2019-02-20T02:38:16.598Z,5.88
2019-02-20T02:40:45.707Z,5.83
2019-02-20T02:43:14.843Z,5.81
2019-02-20T02:45:43.949Z,5.77
2019-02-20T02:48:13.404Z,5.80
2019-02-20T02:50:42.807Z,5.88
2019-02-20T02:53:11.931Z,5.81
2019-02-20T02:55:41.052Z,5.87
2019-02-20T02:58:10.166Z,5.80
2019-02-20T03:00:39.544Z,5.93
2019-02-20T03:03:09.599Z,5.91
2019-02-20T03:05:38.722Z,5.86
2019-02-20T03:08:07.832Z,5.77
2019-02-20T03:10:36.971Z,5.78
2019-02-20T03:13:06.076Z,5.73
2019-02-20T03:15:35.189Z,5.71
2019-02-20T03:18:04.305Z,5.74
2019-02-20T03:20:33.429Z,5.74
2019-02-20T03:23:02.546Z,5.76
2019-02-20T03:25:31.660Z,5.75
2019-02-20T03:28:00.787Z,5.68
2019-02-20T03:30:30.866Z,5.84
2019-02-20T03:32:59.991Z,5.85
2019-02-20T03:35:29.101Z,5.87
2019-02-20T03:37:58.212Z,5.80
2019-02-20T03:40:27.325Z,5.69
2019-02-20T03:42:56.441Z,5.71
2019-02-20T03:45:25.893Z,5.76
2019-02-20T03:47:55.033Z,5.78
2019-02-20T03:50:24.385Z,5.78
2019-02-20T03:52:53.508Z,5.86
2019-02-20T03:55:22.622Z,5.85
2019-02-20T03:57:52.819Z,5.83
2019-02-20T04:00:21.950Z,5.89
2019-02-20T04:02:51.077Z,5.93
2019-02-20T04:05:20.199Z,5.80
2019-02-20T04:07:49.321Z,5.86
2019-02-20T04:10:18.442Z,5.75
2019-02-20T04:12:47.850Z,5.70
2019-02-20T04:15:17.301Z,5.72
2019-02-20T04:17:47.416Z,5.72
2019-02-20T04:20:16.539Z,5.81
2019-02-20T04:22:45.657Z,5.82
2019-02-20T04:25:14.779Z,5.67
2019-02-20T04:27:43.897Z,5.67
2019-02-20T04:30:13.014Z,5.64
2019-02-20T04:32:42.137Z,5.75
2019-02-20T04:35:11.251Z,5.78
2019-02-20T04:37:40.477Z,5.83
2019-02-20T04:40:09.671Z,5.86
2019-02-20T04:42:38.777Z,5.82
2019-02-20T04:45:08.208Z,5.82
2019-02-20T04:47:37.358Z,5.81
2019-02-20T04:50:08.622Z,5.74
2019-02-20T04:52:37.790Z,5.71
2019-02-20T04:55:07.247Z,5.77
2019-02-20T04:57:37.334Z,5.72
2019-02-20T05:00:12.206Z,5.79
2019-02-20T05:02:41.323Z,5.76
2019-02-20T05:05:10.441Z,5.67
2019-02-20T05:07:39.552Z,5.67
2019-02-20T05:10:10.118Z,5.73
2019-02-20T05:12:39.529Z,5.72
2019-02-20T05:15:08.649Z,5.65
2019-02-20T05:17:37.773Z,5.65
2019-02-20T05:20:08.727Z,5.66
2019-02-20T05:22:37.851Z,5.71
2019-02-20T05:25:06.973Z,5.71
2019-02-20T05:27:36.098Z,5.79
2019-02-20T05:30:06.445Z,5.73
2019-02-20T05:32:35.573Z,5.67
2019-02-20T05:35:04.926Z,5.73
2019-02-20T05:37:34.050Z,5.81
2019-02-20T05:40:04.397Z,5.78
2019-02-20T05:42:33.516Z,5.70
2019-02-20T05:45:02.703Z,5.69
2019-02-20T05:47:31.818Z,5.74
2019-02-20T05:50:00.934Z,5.78
2019-02-20T05:52:30.054Z,5.79
2019-02-20T05:54:59.184Z,5.80
2019-02-20T05:57:28.312Z,5.80
2019-02-20T05:59:57.670Z,5.83
2019-02-20T06:02:26.861Z,5.80
2019-02-20T06:04:56.026Z,5.65
2019-02-20T06:07:25.096Z,5.66
2019-02-20T06:09:54.340Z,5.65
2019-02-20T06:12:23.459Z,5.55
2019-02-20T06:14:52.823Z,5.55
2019-02-20T06:17:21.938Z,5.55
2019-02-20T06:19:51.063Z,5.52
2019-02-20T06:22:20.201Z,5.50
2019-02-20T06:24:49.330Z,5.59
2019-02-20T06:27:19.424Z,5.59
2019-02-20T06:29:48.787Z,5.60
2019-02-20T06:32:17.918Z,5.63
2019-02-20T06:34:47.044Z,5.62
2019-02-20T06:37:16.173Z,5.61
2019-02-20T06:39:45.521Z,5.54
2019-02-20T06:42:14.912Z,5.47
2019-02-20T06:44:44.007Z,5.35
2019-02-20T06:47:13.368Z,5.35
2019-02-20T06:49:42.722Z,5.30
2019-02-20T06:52:12.082Z,5.26
2019-02-20T06:54:41.196Z,5.36
2019-02-20T06:57:10.549Z,5.48
2019-02-20T06:59:39.887Z,5.47
2019-02-20T07:02:09.128Z,5.52
2019-02-20T07:04:38.249Z,5.56
2019-02-20T07:07:10.623Z,5.51
2019-02-20T07:09:49.648Z,5.53
2019-02-20T07:12:27.868Z,5.48
2019-02-20T07:15:11.956Z,5.39
2019-02-20T07:17:44.740Z,5.40
2019-02-20T07:20:28.783Z,5.42
2019-02-20T07:23:16.014Z,5.50
2019-02-20T07:25:51.139Z,5.48
2019-02-20T07:28:39.559Z,5.42
2019-02-20T07:31:08.682Z,5.40
2019-02-20T07:33:37.800Z,5.47
2019-02-20T07:36:06.938Z,5.49
2019-02-20T07:38:36.109Z,5.52
2019-02-20T07:41:05.244Z,5.52
2019-02-20T07:43:34.598Z,5.54
2019-02-20T07:46:03.722Z,5.47
2019-02-20T07:48:34.019Z,5.51
2019-02-20T07:51:04.104Z,5.48
2019-02-20T07:53:34.202Z,5.52
2019-02-20T07:56:03.317Z,5.54
2019-02-20T07:58:32.438Z,5.56
2019-02-20T08:01:01.571Z,5.65
2019-02-20T08:03:30.682Z,5.67
2019-02-20T08:05:59.798Z,5.77
2019-02-20T08:08:28.936Z,5.81
2019-02-20T08:10:58.042Z,5.86
2019-02-20T08:13:27.177Z,5.92
2019-02-20T08:15:56.551Z,6.01
2019-02-20T08:18:25.646Z,6.02
2019-02-20T08:20:54.763Z,6.06
2019-02-20T08:23:23.893Z,6.11
2019-02-20T08:25:53.014Z,6.10
2019-02-20T08:28:22.138Z,6.13
2019-02-20T08:30:51.261Z,6.17
2019-02-20T08:33:20.381Z,6.23
2019-02-20T08:35:49.498Z,6.32
2019-02-20T08:38:18.621Z,6.26
2019-02-20T08:40:47.778Z,6.33
2019-02-20T08:43:17.825Z,6.37
2019-02-20T08:45:46.938Z,6.45
2019-02-20T08:48:17.035Z,6.52
2019-02-20T08:50:46.421Z,6.57
2019-02-20T08:53:15.609Z,6.60
2019-02-20T08:55:44.727Z,6.64
2019-02-20T08:58:13.854Z,6.70
2019-02-20T09:00:42.975Z,6.77
2019-02-20T09:03:12.106Z,6.84
2019-02-20T09:05:41.294Z,6.93
2019-02-20T09:08:10.455Z,6.99
2019-02-20T09:10:39.535Z,6.99
2019-02-20T09:13:08.665Z,6.93
2019-02-20T09:15:37.775Z,7.07
2019-02-20T09:18:06.913Z,7.15
2019-02-20T09:20:36.029Z,7.19
2019-02-20T09:23:05.145Z,7.30
2019-02-20T09:25:41.333Z,7.35
2019-02-20T09:28:05.184Z,7.39
2019-02-20T09:30:34.275Z,7.43
2019-02-20T09:33:03.397Z,7.48
2019-02-20T09:35:32.513Z,7.52
2019-02-20T09:38:01.628Z,7.56
2019-02-20T09:40:30.756Z,7.71
2019-02-20T09:42:59.882Z,7.77
2019-02-20T09:45:29.007Z,7.91
2019-02-20T09:47:58.131Z,8.02
2019-02-20T09:50:28.219Z,7.99
2019-02-20T09:52:57.341Z,8.12
2019-02-20T09:55:26.473Z,8.16
2019-02-20T09:57:55.584Z,8.24
2019-02-20T10:00:25.675Z,8.27
2019-02-20T10:02:54.791Z,8.35
2019-02-20T10:05:24.240Z,8.45
2019-02-20T10:07:53.408Z,8.49
2019-02-20T10:10:22.854Z,8.50
2019-02-20T10:12:51.971Z,8.56
2019-02-20T10:15:21.092Z,8.71
2019-02-20T10:17:50.210Z,8.86
2019-02-20T10:20:19.345Z,8.95
2019-02-20T10:22:48.463Z,9.01
2019-02-20T10:25:17.587Z,9.07
2019-02-20T10:27:46.695Z,9.06
2019-02-20T10:30:17.931Z,9.12
2019-02-20T10:32:47.096Z,9.22
2019-02-20T10:35:16.240Z,9.28
2019-02-20T10:37:45.356Z,9.41
2019-02-20T10:40:14.477Z,9.51
2019-02-20T10:42:43.591Z,9.53
2019-02-20T10:45:13.348Z,9.61
2019-02-20T10:47:42.476Z,9.71
2019-02-20T10:50:12.437Z,9.75
2019-02-20T10:52:41.630Z,9.81
2019-02-20T10:55:10.990Z,9.92
2019-02-20T10:57:40.119Z,10.04
2019-02-20T11:00:23.472Z,10.11
2019-02-20T11:02:48.331Z,10.17
2019-02-20T11:05:17.460Z,10.25
2019-02-20T11:07:47.855Z,10.30
2019-02-20T11:10:16.977Z,10.44
2019-02-20T11:12:46.448Z,10.50
2019-02-20T11:15:15.638Z,10.51
2019-02-20T11:17:44.828Z,10.61
2019-02-20T11:20:14.183Z,10.73
2019-02-20T11:22:43.309Z,10.80
2019-02-20T11:25:12.907Z,10.93
2019-02-20T11:27:42.028Z,10.98
2019-02-20T11:30:19.600Z,10.96
2019-02-20T11:32:48.721Z,11.03
2019-02-20T11:35:17.856Z,11.10
2019-02-20T11:37:46.976Z,11.25
2019-02-20T11:40:16.110Z,11.37
2019-02-20T11:42:45.235Z,11.55
2019-02-20T11:45:16.457Z,11.60
2019-02-20T11:47:45.584Z,11.61
2019-02-20T11:50:14.702Z,11.65
2019-02-20T11:52:43.839Z,11.64
2019-02-20T11:55:14.000Z,11.57
2019-02-20T11:57:43.131Z,11.61
2019-02-20T12:00:14.646Z,11.68
2019-02-20T12:02:43.775Z,11.58
2019-02-20T12:05:12.897Z,11.67
2019-02-20T12:07:42.263Z,11.74
2019-02-20T12:10:12.950Z,11.64
2019-02-20T12:12:42.254Z,11.60
2019-02-20T12:15:11.615Z,11.61
2019-02-20T12:17:40.750Z,11.76
2019-02-20T12:20:09.864Z,11.78
2019-02-20T12:22:39.296Z,11.88
2019-02-20T12:25:09.468Z,11.96
2019-02-20T12:27:38.598Z,12.08
2019-02-20T12:30:11.891Z,12.09
2019-02-20T12:32:41.255Z,12.18
2019-02-20T12:35:10.365Z,12.23
2019-02-20T12:37:39.480Z,12.35
2019-02-20T12:40:09.836Z,12.32
2019-02-20T12:42:38.953Z,12.38
2019-02-20T12:45:08.751Z,12.54
2019-02-20T12:47:37.902Z,12.68
2019-02-20T12:50:12.005Z,12.68
2019-02-20T12:52:41.126Z,12.65
2019-02-20T12:55:10.420Z,12.72
2019-02-20T12:57:39.542Z,12.84
2019-02-20T13:00:11.454Z,12.91
2019-02-20T13:02:40.795Z,13.01
2019-02-20T13:05:09.909Z,13.08
2019-02-20T13:07:39.325Z,13.35
2019-02-20T13:10:09.193Z,13.59
2019-02-20T13:12:38.305Z,13.63
2019-02-20T13:15:10.038Z,13.79
2019-02-20T13:17:39.384Z,13.84
2019-02-20T13:20:10.042Z,13.87
2019-02-20T13:22:39.570Z,13.95
2019-02-20T13:25:09.536Z,14.14
2019-02-20T13:27:40.153Z,13.96
2019-02-20T13:30:11.718Z,13.86
2019-02-20T13:32:41.057Z,13.91
2019-02-20T13:35:11.147Z,13.93
2019-02-20T13:37:40.337Z,13.82
2019-02-20T13:40:10.590Z,13.77
2019-02-20T13:42:39.698Z,13.63
2019-02-20T13:45:09.305Z,13.66
2019-02-20T13:47:40.363Z,13.71
2019-02-20T13:50:11.916Z,13.85
2019-02-20T13:52:41.351Z,13.90
2019-02-20T13:55:10.471Z,13.91
2019-02-20T13:57:40.563Z,13.97
2019-02-20T14:00:13.434Z,14.05
2019-02-20T14:02:42.705Z,13.93
2019-02-20T14:05:11.827Z,14.06
2019-02-20T14:07:42.031Z,14.03
2019-02-20T14:10:12.204Z,13.96
2019-02-20T14:12:42.284Z,13.91
2019-02-20T14:15:12.117Z,13.94
2019-02-20T14:17:41.233Z,13.97
2019-02-20T14:20:11.492Z,13.99
2019-02-20T14:22:40.957Z,14.09
2019-02-20T14:25:10.754Z,14.01
2019-02-20T14:27:39.830Z,13.87
2019-02-20T14:30:12.580Z,13.83
2019-02-20T14:32:41.700Z,13.96
2019-02-20T14:35:12.669Z,13.98
2019-02-20T14:37:43.447Z,14.09
2019-02-20T14:40:12.571Z,14.12
2019-02-20T14:42:41.738Z,14.12
2019-02-20T14:45:15.943Z,14.14
2019-02-20T14:47:45.059Z,14.10
2019-02-20T14:50:14.173Z,13.89
2019-02-20T14:52:43.289Z,13.81
2019-02-20T14:55:12.409Z,13.99
2019-02-20T14:57:41.530Z,14.00
2019-02-20T15:00:13.060Z,14.00
2019-02-20T15:02:42.577Z,13.88
2019-02-20T15:05:12.113Z,13.81
2019-02-20T15:07:41.300Z,13.47
2019-02-20T15:10:11.387Z,13.40
2019-02-20T15:12:40.504Z,13.21
2019-02-20T15:15:13.099Z,13.20
2019-02-20T15:17:42.228Z,13.34
2019-02-20T15:20:11.419Z,13.47
2019-02-20T15:22:40.571Z,13.51
2019-02-20T15:25:09.962Z,13.47
2019-02-20T15:27:39.083Z,13.42
2019-02-20T15:30:12.461Z,13.37
2019-02-20T15:32:41.751Z,13.41
2019-02-20T15:35:11.136Z,13.33
2019-02-20T15:37:40.262Z,13.25
2019-02-20T15:40:09.747Z,13.25
2019-02-20T15:42:38.883Z,13.18
2019-02-20T15:45:12.175Z,13.07
2019-02-20T15:47:41.305Z,13.09
2019-02-20T15:50:14.459Z,13.11
2019-02-20T15:52:43.592Z,12.98
2019-02-20T15:55:13.679Z,12.84
2019-02-20T15:57:42.822Z,12.90
2019-02-20T16:00:18.220Z,12.78
2019-02-20T16:02:47.358Z,12.67
2019-02-20T16:05:16.999Z,12.66
2019-02-20T16:07:46.118Z,12.64
2019-02-20T16:10:15.407Z,12.67
2019-02-20T16:12:44.660Z,12.73
2019-02-20T16:15:14.698Z,12.66
2019-02-20T16:17:44.895Z,12.62
2019-02-20T16:20:14.461Z,12.59
2019-02-20T16:22:43.582Z,12.44
2019-02-20T16:25:15.094Z,12.42
2019-02-20T16:27:47.027Z,12.30
2019-02-20T16:30:15.210Z,12.30
2019-02-20T16:32:44.325Z,12.25
2019-02-20T16:35:14.691Z,12.27
2019-02-20T16:37:44.054Z,12.32
2019-02-20T16:40:14.969Z,12.28
2019-02-20T16:42:44.156Z,12.29
2019-02-20T16:45:21.905Z,12.16
2019-02-20T16:47:51.457Z,12.08
2019-02-20T16:50:20.833Z,12.03
2019-02-20T16:52:50.327Z,12.04
2019-02-20T16:55:19.996Z,11.98
2019-02-20T16:57:56.251Z,11.71
2019-02-20T17:00:22.098Z,11.57
2019-02-20T17:02:51.917Z,11.56
2019-02-20T17:05:21.052Z,11.50
2019-02-20T17:07:50.409Z,11.38
2019-02-20T17:10:19.775Z,11.32
2019-02-20T17:12:48.896Z,11.33
2019-02-20T17:15:18.116Z,11.28
2019-02-20T17:17:47.503Z,11.38
2019-02-20T17:20:18.081Z,11.29
2019-02-20T17:22:47.181Z,11.33
2019-02-20T17:25:16.883Z,11.24
2019-02-20T17:27:46.010Z,11.20
2019-02-20T17:30:16.279Z,11.20
2019-02-20T17:32:45.792Z,11.12
2019-02-20T17:35:17.061Z,11.01
2019-02-20T17:37:45.915Z,10.87
2019-02-20T17:40:15.214Z,10.83
2019-02-20T17:42:44.412Z,10.75
2019-02-20T17:45:17.875Z,10.72
2019-02-20T17:47:47.227Z,10.77
2019-02-20T17:50:22.146Z,10.95
2019-02-20T17:52:51.511Z,10.83
2019-02-20T17:55:20.893Z,10.75
2019-02-20T17:57:50.005Z,10.78
2019-02-20T18:00:20.784Z,10.62
2019-02-20T18:02:49.885Z,10.56
2019-02-20T18:05:19.251Z,10.34
2019-02-20T18:07:51.725Z,10.41
2019-02-20T18:10:19.200Z,10.38
2019-02-20T18:12:48.324Z,10.37
2019-02-20T18:15:17.455Z,10.45
2019-02-20T18:17:46.580Z,10.46
2019-02-20T18:20:15.700Z,10.44
2019-02-20T18:22:44.824Z,10.47
2019-02-20T18:25:13.956Z,10.42
2019-02-20T18:27:43.163Z,10.48
2019-02-20T18:30:16.139Z,10.30
2019-02-20T18:32:45.639Z,10.16
2019-02-20T18:35:16.864Z,10.07
2019-02-20T18:37:45.981Z,10.17
2019-02-20T18:40:17.984Z,10.20
2019-02-20T18:42:47.181Z,10.09
2019-02-20T18:45:16.306Z,10.14
2019-02-20T18:47:45.435Z,9.97
2019-02-20T18:50:15.540Z,9.99
2019-02-20T18:52:44.728Z,9.79
2019-02-20T18:55:14.219Z,9.67
2019-02-20T18:57:43.551Z,9.74
2019-02-20T19:00:15.324Z,9.88
2019-02-20T19:02:44.618Z,9.91
2019-02-20T19:05:13.718Z,9.80
2019-02-20T19:07:44.858Z,9.72
2019-02-20T19:10:24.523Z,9.64
2019-02-20T19:13:11.771Z,9.54
2019-02-20T19:15:56.326Z,9.61
2019-02-20T19:18:43.809Z,9.51
2019-02-20T19:21:34.129Z,9.71
2019-02-20T19:24:18.237Z,9.75
2019-02-20T19:26:48.389Z,9.78
2019-02-20T19:29:20.872Z,9.84
2019-02-20T19:32:15.669Z,9.71
2019-02-20T19:35:04.016Z,9.67
2019-02-20T19:37:51.329Z,9.59
2019-02-20T19:40:32.251Z,9.58
2019-02-20T19:43:07.587Z,9.57
2019-02-20T19:45:40.005Z,9.67
2019-02-20T19:48:27.013Z,9.65
2019-02-20T19:51:08.187Z,9.53
2019-02-20T19:54:01.204Z,9.50
2019-02-20T19:56:48.505Z,9.63
2019-02-20T19:59:40.496Z,9.64
2019-02-20T20:02:15.575Z,9.44
2019-02-20T20:05:22.557Z,9.40
2019-02-20T20:07:57.975Z,9.40
2019-02-20T20:10:51.734Z,9.35
2019-02-20T20:13:24.185Z,9.40
2019-02-20T20:15:59.121Z,9.35
2019-02-20T20:18:51.114Z,9.27
2019-02-20T20:21:23.482Z,9.23
2019-02-20T20:24:12.493Z,9.21
2019-02-20T20:26:50.128Z,9.13
2019-02-20T20:29:51.399Z,9.09
2019-02-20T20:32:32.800Z,9.09
2019-02-20T20:35:10.992Z,9.04
2019-02-20T20:37:46.248Z,8.96
2019-02-20T20:40:44.261Z,8.84
2019-02-20T20:43:25.563Z,8.84
2019-02-20T20:46:20.565Z,8.71
2019-02-20T20:49:04.447Z,8.61
2019-02-20T20:51:40.595Z,8.40
2019-02-20T20:54:30.758Z,8.40
2019-02-20T20:57:24.725Z,8.29
2019-02-20T21:00:06.111Z,8.31
2019-02-20T21:02:41.634Z,8.42
2019-02-20T21:05:22.747Z,8.36
2019-02-20T21:08:03.702Z,8.44
2019-02-20T21:11:10.409Z,8.24
2019-02-20T21:14:05.234Z,8.07
2019-02-20T21:16:52.295Z,8.11
2019-02-20T21:19:42.610Z,8.01
2019-02-20T21:22:20.944Z,7.94
2019-02-20T21:25:15.775Z,7.98
2019-02-20T21:27:54.771Z,7.95
2019-02-20T21:30:46.687Z,7.99
2019-02-20T21:33:25.716Z,7.97
2019-02-20T21:36:01.132Z,7.88
2019-02-20T21:38:42.562Z,7.84
2019-02-20T21:41:23.750Z,7.80
2019-02-20T21:44:04.940Z,7.82
2019-02-20T21:46:54.576Z,7.87
2019-02-20T21:49:29.516Z,7.91
2019-02-20T21:52:10.687Z,8.09
2019-02-20T21:54:51.772Z,8.09
2019-02-20T21:57:24.145Z,8.06
2019-02-20T22:00:05.594Z,8.07
2019-02-20T22:02:51.397Z,8.08
2019-02-20T22:05:24.187Z,8.11
2019-02-20T22:08:13.076Z,7.92
2019-02-20T22:11:13.551Z,7.90
2019-02-20T22:14:00.563Z,7.97
2019-02-20T22:16:41.560Z,7.96
2019-02-20T22:19:14.090Z,8.00
2019-02-20T22:22:08.922Z,7.96
2019-02-20T22:25:15.186Z,7.67
2019-02-20T22:27:53.494Z,7.53
2019-02-20T22:30:26.193Z,7.47
2019-02-20T22:33:16.843Z,7.38
2019-02-20T22:36:06.688Z,7.33
2019-02-20T22:38:55.802Z,7.38
2019-02-20T22:41:30.958Z,7.36
2019-02-20T22:44:03.419Z,7.21
2019-02-20T22:46:36.139Z,7.19
2019-02-20T22:49:18.473Z,7.15
2019-02-20T22:51:53.992Z,7.25
2019-02-20T22:54:50.227Z,7.26
2019-02-20T22:57:40.694Z,7.31
2019-02-20T23:00:37.336Z,7.42
2019-02-20T23:03:37.003Z,7.37
2019-02-20T23:06:09.684Z,7.37
2019-02-20T23:08:53.819Z,7.45
2019-02-20T23:11:26.579Z,7.46
2019-02-20T23:14:07.404Z,7.46
2019-02-20T23:16:36.607Z,7.42
2019-02-20T23:19:05.727Z,7.50
2019-02-20T23:21:34.861Z,7.37
2019-02-20T23:24:03.970Z,7.31
2019-02-20T23:26:33.091Z,7.23
2019-02-20T23:29:02.209Z,7.27
2019-02-20T23:31:31.326Z,7.23
2019-02-20T23:34:00.452Z,7.25
2019-02-20T23:36:29.572Z,7.26
2019-02-20T23:38:58.691Z,7.12
2019-02-20T23:41:27.804Z,6.90
2019-02-20T23:43:56.935Z,6.78
2019-02-20T23:46:26.049Z,6.85
2019-02-20T23:48:55.183Z,6.90
2019-02-20T23:51:24.303Z,6.92
2019-02-20T23:53:53.444Z,6.99
2019-02-20T23:56:22.544Z,6.95
2019-02-20T23:58:51.663Z,6.94
